sensor_id;sensor_type;location;lat;lon;timestamp;pressure;altitude;pressure_sealevel;temperature;humidity
72909;BME280;61051;62.624;17.950;2024-02-14T00:00:34;101221.76;;;-4.80;95.93
72909;BME280;61051;62.624;17.950;2024-02-14T00:03:04;101221.10;;;-4.84;96.16
72909;BME280;61051;62.624;17.950;2024-02-14T00:05:32;101219.95;;;-4.77;96.28
72909;BME280;61051;62.624;17.950;2024-02-14T00:08:01;101220.09;;;-4.77;96.01
72909;BME280;61051;62.624;17.950;2024-02-14T00:10:30;101218.65;;;-4.92;96.29
72909;BME280;61051;62.624;17.950;2024-02-14T00:12:59;101216.80;;;-4.96;95.99
72909;BME280;61051;62.624;17.950;2024-02-14T00:15:28;101213.10;;;-4.88;96.37
72909;BME280;61051;62.624;17.950;2024-02-14T00:17:57;101212.59;;;-4.88;96.41
72909;BME280;61051;62.624;17.950;2024-02-14T00:20:26;101212.69;;;-4.86;96.40
72909;BME280;61051;62.624;17.950;2024-02-14T00:22:54;101215.85;;;-4.82;96.23
72909;BME280;61051;62.624;17.950;2024-02-14T00:25:23;101209.27;;;-4.94;95.63
72909;BME280;61051;62.624;17.950;2024-02-14T00:27:52;101210.94;;;-4.92;95.27
72909;BME280;61051;62.624;17.950;2024-02-14T00:30:20;101210.28;;;-5.01;95.09
72909;BME280;61051;62.624;17.950;2024-02-14T00:32:50;101206.33;;;-4.99;95.15
72909;BME280;61051;62.624;17.950;2024-02-14T00:35:18;101207.61;;;-5.05;94.87
72909;BME280;61051;62.624;17.950;2024-02-14T00:37:47;101211.05;;;-5.21;94.76
72909;BME280;61051;62.624;17.950;2024-02-14T00:40:16;101211.64;;;-5.14;95.09
72909;BME280;61051;62.624;17.950;2024-02-14T00:42:45;101211.61;;;-5.14;95.31
72909;BME280;61051;62.624;17.950;2024-02-14T00:45:14;101207.73;;;-5.14;95.35
72909;BME280;61051;62.624;17.950;2024-02-14T00:47:42;101209.71;;;-5.23;95.69
72909;BME280;61051;62.624;17.950;2024-02-14T00:50:12;101203.19;;;-5.05;95.90
72909;BME280;61051;62.624;17.950;2024-02-14T00:52:42;101206.82;;;-5.01;95.65
72909;BME280;61051;62.624;17.950;2024-02-14T00:55:11;101204.87;;;-5.08;95.84
72909;BME280;61051;62.624;17.950;2024-02-14T00:57:41;101206.98;;;-5.10;95.75
72909;BME280;61051;62.624;17.950;2024-02-14T01:00:10;101205.08;;;-5.12;95.41
72909;BME280;61051;62.624;17.950;2024-02-14T01:02:39;101207.02;;;-5.05;95.48
72909;BME280;61051;62.624;17.950;2024-02-14T01:05:08;101210.19;;;-5.21;95.37
72909;BME280;61051;62.624;17.950;2024-02-14T01:07:36;101212.88;;;-5.12;95.20
72909;BME280;61051;62.624;17.950;2024-02-14T01:10:05;101220.57;;;-5.25;95.35
72909;BME280;61051;62.624;17.950;2024-02-14T01:12:34;101220.66;;;-5.05;95.12
72909;BME280;61051;62.624;17.950;2024-02-14T01:15:03;101222.53;;;-5.21;95.23
72909;BME280;61051;62.624;17.950;2024-02-14T01:17:31;101220.99;;;-5.06;94.90
72909;BME280;61051;62.624;17.950;2024-02-14T01:20:00;101224.58;;;-5.10;95.67
72909;BME280;61051;62.624;17.950;2024-02-14T01:22:29;101229.02;;;-5.21;95.49
72909;BME280;61051;62.624;17.950;2024-02-14T01:24:57;101220.94;;;-5.14;95.48
72909;BME280;61051;62.624;17.950;2024-02-14T01:27:26;101208.38;;;-5.23;95.97
72909;BME280;61051;62.624;17.950;2024-02-14T01:29:55;101198.54;;;-5.07;95.55
72909;BME280;61051;62.624;17.950;2024-02-14T01:32:24;101194.02;;;-5.27;95.18
72909;BME280;61051;62.624;17.950;2024-02-14T01:34:53;101201.00;;;-5.27;95.32
72909;BME280;61051;62.624;17.950;2024-02-14T01:37:22;101206.99;;;-5.25;95.45
72909;BME280;61051;62.624;17.950;2024-02-14T01:39:50;101207.77;;;-5.31;95.42
72909;BME280;61051;62.624;17.950;2024-02-14T01:42:19;101210.06;;;-5.32;95.23
72909;BME280;61051;62.624;17.950;2024-02-14T01:44:48;101206.14;;;-5.34;95.04
72909;BME280;61051;62.624;17.950;2024-02-14T01:47:17;101204.25;;;-5.37;95.29
72909;BME280;61051;62.624;17.950;2024-02-14T01:49:46;101204.73;;;-5.37;95.40
72909;BME280;61051;62.624;17.950;2024-02-14T01:52:15;101201.04;;;-5.47;95.51
72909;BME280;61051;62.624;17.950;2024-02-14T01:54:43;101200.48;;;-5.32;95.53
72909;BME280;61051;62.624;17.950;2024-02-14T01:57:13;101204.96;;;-5.38;95.43
72909;BME280;61051;62.624;17.950;2024-02-14T01:59:42;101201.46;;;-5.37;95.76
72909;BME280;61051;62.624;17.950;2024-02-14T02:02:12;101198.11;;;-5.46;95.40
72909;BME280;61051;62.624;17.950;2024-02-14T02:04:41;101198.46;;;-5.34;95.26
72909;BME280;61051;62.624;17.950;2024-02-14T02:07:11;101205.11;;;-5.45;95.14
72909;BME280;61051;62.624;17.950;2024-02-14T02:09:41;101204.67;;;-5.40;95.19
72909;BME280;61051;62.624;17.950;2024-02-14T02:12:09;101210.22;;;-5.43;95.25
72909;BME280;61051;62.624;17.950;2024-02-14T02:14:38;101208.95;;;-5.38;95.59
72909;BME280;61051;62.624;17.950;2024-02-14T02:17:07;101211.33;;;-5.36;95.15
72909;BME280;61051;62.624;17.950;2024-02-14T02:19:36;101216.27;;;-5.55;95.48
72909;BME280;61051;62.624;17.950;2024-02-14T02:22:04;101208.56;;;-5.57;95.32
72909;BME280;61051;62.624;17.950;2024-02-14T02:24:33;101208.23;;;-5.62;95.71
72909;BME280;61051;62.624;17.950;2024-02-14T02:27:03;101208.26;;;-5.51;95.67
72909;BME280;61051;62.624;17.950;2024-02-14T02:29:32;101206.32;;;-5.53;95.96
72909;BME280;61051;62.624;17.950;2024-02-14T02:32:01;101205.11;;;-5.59;95.73
72909;BME280;61051;62.624;17.950;2024-02-14T02:34:30;101204.74;;;-5.66;95.19
72909;BME280;61051;62.624;17.950;2024-02-14T02:36:58;101202.83;;;-5.64;94.89
72909;BME280;61051;62.624;17.950;2024-02-14T02:39:27;101199.45;;;-5.67;95.01
72909;BME280;61051;62.624;17.950;2024-02-14T02:41:56;101203.93;;;-5.70;94.97
72909;BME280;61051;62.624;17.950;2024-02-14T02:44:25;101205.38;;;-5.68;94.69
72909;BME280;61051;62.624;17.950;2024-02-14T02:46:54;101208.04;;;-5.75;94.64
72909;BME280;61051;62.624;17.950;2024-02-14T02:49:23;101209.17;;;-5.69;94.60
72909;BME280;61051;62.624;17.950;2024-02-14T02:51:52;101202.34;;;-5.60;94.26
72909;BME280;61051;62.624;17.950;2024-02-14T02:54:21;101200.73;;;-5.66;94.65
72909;BME280;61051;62.624;17.950;2024-02-14T02:56:49;101203.35;;;-5.67;94.27
72909;BME280;61051;62.624;17.950;2024-02-14T02:59:18;101201.54;;;-5.68;94.17
72909;BME280;61051;62.624;17.950;2024-02-14T03:01:47;101202.04;;;-5.59;94.30
72909;BME280;61051;62.624;17.950;2024-02-14T03:04:15;101198.93;;;-5.73;94.79
72909;BME280;61051;62.624;17.950;2024-02-14T03:06:44;101195.17;;;-5.67;94.67
72909;BME280;61051;62.624;17.950;2024-02-14T03:09:14;101196.28;;;-5.61;94.48
72909;BME280;61051;62.624;17.950;2024-02-14T03:11:46;101209.79;;;-5.63;94.44
72909;BME280;61051;62.624;17.950;2024-02-14T03:14:14;101213.62;;;-5.68;94.56
72909;BME280;61051;62.624;17.950;2024-02-14T03:16:42;101213.32;;;-5.59;95.00
72909;BME280;61051;62.624;17.950;2024-02-14T03:19:12;101211.66;;;-5.70;94.49
72909;BME280;61051;62.624;17.950;2024-02-14T03:21:42;101213.33;;;-5.65;94.22
72909;BME280;61051;62.624;17.950;2024-02-14T03:24:11;101215.65;;;-5.69;94.20
72909;BME280;61051;62.624;17.950;2024-02-14T03:26:41;101209.64;;;-5.71;94.19
72909;BME280;61051;62.624;17.950;2024-02-14T03:29:09;101218.54;;;-5.65;93.95
72909;BME280;61051;62.624;17.950;2024-02-14T03:31:38;101217.25;;;-5.74;93.71
72909;BME280;61051;62.624;17.950;2024-02-14T03:34:06;101216.80;;;-5.81;93.61
72909;BME280;61051;62.624;17.950;2024-02-14T03:36:36;101214.27;;;-5.73;93.23
72909;BME280;61051;62.624;17.950;2024-02-14T03:39:06;101210.75;;;-5.79;93.22
72909;BME280;61051;62.624;17.950;2024-02-14T03:41:34;101204.01;;;-5.69;93.67
72909;BME280;61051;62.624;17.950;2024-02-14T03:44:03;101203.50;;;-5.67;93.38
72909;BME280;61051;62.624;17.950;2024-02-14T03:46:32;101204.95;;;-5.81;93.65
72909;BME280;61051;62.624;17.950;2024-02-14T03:49:00;101203.64;;;-5.68;93.61
72909;BME280;61051;62.624;17.950;2024-02-14T03:51:29;101205.98;;;-5.73;93.54
72909;BME280;61051;62.624;17.950;2024-02-14T03:53:58;101212.23;;;-5.71;93.36
72909;BME280;61051;62.624;17.950;2024-02-14T03:56:27;101217.89;;;-5.72;93.45
72909;BME280;61051;62.624;17.950;2024-02-14T03:58:55;101222.97;;;-5.74;93.49
72909;BME280;61051;62.624;17.950;2024-02-14T04:01:24;101224.85;;;-5.72;93.18
72909;BME280;61051;62.624;17.950;2024-02-14T04:03:53;101223.25;;;-5.81;93.27
72909;BME280;61051;62.624;17.950;2024-02-14T04:06:22;101225.03;;;-5.76;93.18
72909;BME280;61051;62.624;17.950;2024-02-14T04:08:51;101226.64;;;-5.66;93.12
72909;BME280;61051;62.624;17.950;2024-02-14T04:11:19;101227.35;;;-5.77;92.73
72909;BME280;61051;62.624;17.950;2024-02-14T04:13:48;101229.37;;;-5.73;93.26
72909;BME280;61051;62.624;17.950;2024-02-14T04:16:19;101230.02;;;-5.71;92.82
72909;BME280;61051;62.624;17.950;2024-02-14T04:18:47;101223.65;;;-5.92;93.03
72909;BME280;61051;62.624;17.950;2024-02-14T04:21:16;101223.92;;;-5.82;93.44
72909;BME280;61051;62.624;17.950;2024-02-14T04:23:45;101231.61;;;-5.95;92.89
72909;BME280;61051;62.624;17.950;2024-02-14T04:26:19;101231.69;;;-5.83;92.81
72909;BME280;61051;62.624;17.950;2024-02-14T04:28:48;101228.34;;;-5.83;92.91
72909;BME280;61051;62.624;17.950;2024-02-14T04:31:16;101232.36;;;-5.85;93.43
72909;BME280;61051;62.624;17.950;2024-02-14T04:33:45;101231.13;;;-5.79;93.35
72909;BME280;61051;62.624;17.950;2024-02-14T04:36:14;101225.20;;;-5.84;92.70
72909;BME280;61051;62.624;17.950;2024-02-14T04:38:42;101221.77;;;-5.94;92.95
72909;BME280;61051;62.624;17.950;2024-02-14T04:41:12;101222.98;;;-6.00;93.57
72909;BME280;61051;62.624;17.950;2024-02-14T04:43:42;101217.46;;;-5.90;93.58
72909;BME280;61051;62.624;17.950;2024-02-14T04:46:11;101215.21;;;-5.94;93.50
72909;BME280;61051;62.624;17.950;2024-02-14T04:48:39;101213.08;;;-5.86;93.63
72909;BME280;61051;62.624;17.950;2024-02-14T04:51:08;101213.00;;;-5.88;94.17
72909;BME280;61051;62.624;17.950;2024-02-14T04:53:36;101208.90;;;-5.89;93.89
72909;BME280;61051;62.624;17.950;2024-02-14T04:56:06;101213.17;;;-5.83;94.44
72909;BME280;61051;62.624;17.950;2024-02-14T04:58:34;101216.71;;;-5.88;94.19
72909;BME280;61051;62.624;17.950;2024-02-14T05:03:16;101211.50;;;-6.04;94.36
72909;BME280;61051;62.624;17.950;2024-02-14T05:05:45;101211.80;;;-5.90;94.49
72909;BME280;61051;62.624;17.950;2024-02-14T05:08:13;101209.05;;;-5.82;94.40
72909;BME280;61051;62.624;17.950;2024-02-14T05:10:42;101214.70;;;-5.79;93.56
72909;BME280;61051;62.624;17.950;2024-02-14T05:13:11;101216.69;;;-5.88;93.68
72909;BME280;61051;62.624;17.950;2024-02-14T05:15:40;101213.87;;;-5.90;93.99
72909;BME280;61051;62.624;17.950;2024-02-14T05:18:09;101204.68;;;-5.77;94.25
72909;BME280;61051;62.624;17.950;2024-02-14T05:20:37;101208.34;;;-5.84;94.46
72909;BME280;61051;62.624;17.950;2024-02-14T05:23:06;101216.02;;;-5.87;93.75
72909;BME280;61051;62.624;17.950;2024-02-14T05:25:35;101219.79;;;-5.79;93.61
72909;BME280;61051;62.624;17.950;2024-02-14T05:28:04;101226.99;;;-5.84;93.79
72909;BME280;61051;62.624;17.950;2024-02-14T05:30:32;101238.20;;;-5.84;93.13
72909;BME280;61051;62.624;17.950;2024-02-14T05:33:01;101240.30;;;-5.77;92.86
72909;BME280;61051;62.624;17.950;2024-02-14T05:35:30;101242.60;;;-5.86;92.45
72909;BME280;61051;62.624;17.950;2024-02-14T05:37:59;101243.15;;;-5.76;92.34
72909;BME280;61051;62.624;17.950;2024-02-14T05:40:27;101242.93;;;-5.78;92.37
72909;BME280;61051;62.624;17.950;2024-02-14T05:42:56;101239.97;;;-5.80;92.23
72909;BME280;61051;62.624;17.950;2024-02-14T05:45:25;101238.22;;;-5.78;92.38
72909;BME280;61051;62.624;17.950;2024-02-14T05:47:55;101240.22;;;-5.84;92.22
72909;BME280;61051;62.624;17.950;2024-02-14T05:50:24;101237.41;;;-5.95;92.08
72909;BME280;61051;62.624;17.950;2024-02-14T05:52:54;101235.72;;;-5.82;92.32
72909;BME280;61051;62.624;17.950;2024-02-14T05:55:23;101238.04;;;-5.83;92.34
72909;BME280;61051;62.624;17.950;2024-02-14T05:57:52;101238.89;;;-5.84;92.22
72909;BME280;61051;62.624;17.950;2024-02-14T06:00:21;101235.62;;;-5.90;92.30
72909;BME280;61051;62.624;17.950;2024-02-14T06:02:49;101236.54;;;-5.88;92.15
72909;BME280;61051;62.624;17.950;2024-02-14T06:05:18;101244.15;;;-5.87;92.50
72909;BME280;61051;62.624;17.950;2024-02-14T06:07:47;101247.63;;;-5.84;92.50
72909;BME280;61051;62.624;17.950;2024-02-14T06:10:16;101251.96;;;-5.87;92.36
72909;BME280;61051;62.624;17.950;2024-02-14T06:12:44;101251.36;;;-5.85;92.65
72909;BME280;61051;62.624;17.950;2024-02-14T06:15:13;101250.02;;;-5.71;92.86
72909;BME280;61051;62.624;17.950;2024-02-14T06:17:41;101251.85;;;-5.95;93.18
72909;BME280;61051;62.624;17.950;2024-02-14T06:20:11;101252.72;;;-5.84;93.19
72909;BME280;61051;62.624;17.950;2024-02-14T06:22:39;101255.34;;;-5.72;93.58
72909;BME280;61051;62.624;17.950;2024-02-14T06:25:08;101254.87;;;-5.75;92.99
72909;BME280;61051;62.624;17.950;2024-02-14T06:27:37;101254.72;;;-5.83;93.56
72909;BME280;61051;62.624;17.950;2024-02-14T06:30:06;101255.22;;;-5.73;93.47
72909;BME280;61051;62.624;17.950;2024-02-14T06:32:36;101255.62;;;-5.73;93.38
72909;BME280;61051;62.624;17.950;2024-02-14T06:35:05;101257.14;;;-5.77;93.66
72909;BME280;61051;62.624;17.950;2024-02-14T06:37:34;101260.99;;;-5.72;93.73
72909;BME280;61051;62.624;17.950;2024-02-14T06:40:04;101258.11;;;-5.72;93.73
72909;BME280;61051;62.624;17.950;2024-02-14T06:42:33;101260.93;;;-5.56;93.98
72909;BME280;61051;62.624;17.950;2024-02-14T06:45:02;101263.05;;;-5.66;94.11
72909;BME280;61051;62.624;17.950;2024-02-14T06:47:30;101264.02;;;-5.65;93.98
72909;BME280;61051;62.624;17.950;2024-02-14T06:50:00;101263.85;;;-5.72;94.17
72909;BME280;61051;62.624;17.950;2024-02-14T06:52:28;101264.72;;;-5.60;94.23
72909;BME280;61051;62.624;17.950;2024-02-14T06:54:57;101264.49;;;-5.61;94.67
72909;BME280;61051;62.624;17.950;2024-02-14T06:57:27;101264.28;;;-5.64;94.33
72909;BME280;61051;62.624;17.950;2024-02-14T06:59:56;101264.28;;;-5.47;94.45
72909;BME280;61051;62.624;17.950;2024-02-14T07:02:24;101265.90;;;-5.50;94.11
72909;BME280;61051;62.624;17.950;2024-02-14T07:04:55;101262.95;;;-5.50;94.58
72909;BME280;61051;62.624;17.950;2024-02-14T07:07:24;101265.87;;;-5.53;94.36
72909;BME280;61051;62.624;17.950;2024-02-14T07:09:53;101270.26;;;-5.39;94.45
72909;BME280;61051;62.624;17.950;2024-02-14T07:12:22;101273.69;;;-5.47;94.38
72909;BME280;61051;62.624;17.950;2024-02-14T07:14:51;101271.71;;;-5.41;94.79
72909;BME280;61051;62.624;17.950;2024-02-14T07:17:20;101275.32;;;-5.47;94.70
72909;BME280;61051;62.624;17.950;2024-02-14T07:19:49;101276.42;;;-5.40;94.62
72909;BME280;61051;62.624;17.950;2024-02-14T07:22:18;101280.69;;;-5.32;94.40
72909;BME280;61051;62.624;17.950;2024-02-14T07:24:47;101279.18;;;-5.33;94.33
72909;BME280;61051;62.624;17.950;2024-02-14T07:27:16;101278.84;;;-5.32;94.53
72909;BME280;61051;62.624;17.950;2024-02-14T07:29:45;101276.34;;;-5.35;94.44
72909;BME280;61051;62.624;17.950;2024-02-14T07:32:15;101277.10;;;-5.33;94.35
72909;BME280;61051;62.624;17.950;2024-02-14T07:34:43;101275.90;;;-5.31;94.00
72909;BME280;61051;62.624;17.950;2024-02-14T07:37:12;101273.66;;;-5.26;94.21
72909;BME280;61051;62.624;17.950;2024-02-14T07:39:41;101274.24;;;-5.32;94.21
72909;BME280;61051;62.624;17.950;2024-02-14T07:42:10;101275.23;;;-5.36;94.35
72909;BME280;61051;62.624;17.950;2024-02-14T07:44:39;101273.77;;;-5.32;94.15
72909;BME280;61051;62.624;17.950;2024-02-14T07:47:08;101274.72;;;-5.32;93.38
72909;BME280;61051;62.624;17.950;2024-02-14T07:49:38;101272.63;;;-5.24;93.32
72909;BME280;61051;62.624;17.950;2024-02-14T07:52:06;101273.10;;;-5.26;93.57
72909;BME280;61051;62.624;17.950;2024-02-14T07:54:35;101275.00;;;-5.23;94.20
72909;BME280;61051;62.624;17.950;2024-02-14T07:57:04;101274.82;;;-5.15;93.68
72909;BME280;61051;62.624;17.950;2024-02-14T07:59:33;101277.73;;;-5.12;93.79
72909;BME280;61051;62.624;17.950;2024-02-14T08:02:02;101281.66;;;-5.15;93.50
72909;BME280;61051;62.624;17.950;2024-02-14T08:04:30;101283.61;;;-4.96;93.72
72909;BME280;61051;62.624;17.950;2024-02-14T08:06:59;101286.49;;;-5.01;93.04
72909;BME280;61051;62.624;17.950;2024-02-14T08:09:29;101283.90;;;-5.07;92.88
72909;BME280;61051;62.624;17.950;2024-02-14T08:11:57;101283.25;;;-4.93;93.04
72909;BME280;61051;62.624;17.950;2024-02-14T08:14:26;101285.42;;;-4.84;92.06
72909;BME280;61051;62.624;17.950;2024-02-14T08:16:56;101280.90;;;-4.85;92.14
72909;BME280;61051;62.624;17.950;2024-02-14T08:19:24;101281.99;;;-4.84;91.99
72909;BME280;61051;62.624;17.950;2024-02-14T08:21:53;101286.09;;;-4.75;92.02
72909;BME280;61051;62.624;17.950;2024-02-14T08:24:21;101287.81;;;-4.71;92.04
72909;BME280;61051;62.624;17.950;2024-02-14T08:26:49;101294.62;;;-4.41;92.07
72909;BME280;61051;62.624;17.950;2024-02-14T08:29:18;101295.55;;;-4.42;91.07
72909;BME280;61051;62.624;17.950;2024-02-14T08:31:47;101296.59;;;-4.30;90.84
72909;BME280;61051;62.624;17.950;2024-02-14T08:34:16;101301.69;;;-4.20;90.65
72909;BME280;61051;62.624;17.950;2024-02-14T08:36:45;101299.33;;;-4.21;90.64
72909;BME280;61051;62.624;17.950;2024-02-14T08:39:14;101296.13;;;-4.20;90.37
72909;BME280;61051;62.624;17.950;2024-02-14T08:41:44;101298.76;;;-4.33;90.88
72909;BME280;61051;62.624;17.950;2024-02-14T08:44:12;101295.38;;;-4.31;91.66
72909;BME280;61051;62.624;17.950;2024-02-14T08:46:40;101292.97;;;-4.39;92.14
72909;BME280;61051;62.624;17.950;2024-02-14T08:49:10;101292.15;;;-4.39;92.52
72909;BME280;61051;62.624;17.950;2024-02-14T08:51:39;101295.36;;;-4.18;93.56
72909;BME280;61051;62.624;17.950;2024-02-14T08:54:08;101293.27;;;-4.16;92.72
72909;BME280;61051;62.624;17.950;2024-02-14T08:56:36;101292.12;;;-4.11;92.41
72909;BME280;61051;62.624;17.950;2024-02-14T08:59:05;101287.61;;;-4.20;92.48
72909;BME280;61051;62.624;17.950;2024-02-14T09:01:33;101285.99;;;-4.17;92.32
72909;BME280;61051;62.624;17.950;2024-02-14T09:04:02;101282.75;;;-4.23;93.08
72909;BME280;61051;62.624;17.950;2024-02-14T09:06:31;101281.03;;;-4.02;96.00
72909;BME280;61051;62.624;17.950;2024-02-14T09:08:59;101281.87;;;-3.85;97.74
72909;BME280;61051;62.624;17.950;2024-02-14T09:11:28;101287.27;;;-3.55;98.43
72909;BME280;61051;62.624;17.950;2024-02-14T09:13:57;101282.05;;;-3.50;99.03
72909;BME280;61051;62.624;17.950;2024-02-14T09:16:25;101279.87;;;-3.24;98.90
72909;BME280;61051;62.624;17.950;2024-02-14T09:18:56;101283.47;;;-3.07;98.38
72909;BME280;61051;62.624;17.950;2024-02-14T09:21:24;101283.52;;;-2.97;97.05
72909;BME280;61051;62.624;17.950;2024-02-14T09:23:53;101285.44;;;-2.64;96.35
72909;BME280;61051;62.624;17.950;2024-02-14T09:26:21;101291.00;;;-2.71;95.92
72909;BME280;61051;62.624;17.950;2024-02-14T09:28:50;101294.24;;;-2.73;95.79
72909;BME280;61051;62.624;17.950;2024-02-14T09:31:18;101297.48;;;-2.76;96.48
72909;BME280;61051;62.624;17.950;2024-02-14T09:33:48;101300.16;;;-2.66;96.40
72909;BME280;61051;62.624;17.950;2024-02-14T09:36:17;101296.34;;;-2.53;96.25
72909;BME280;61051;62.624;17.950;2024-02-14T09:38:46;101296.69;;;-2.47;95.74
72909;BME280;61051;62.624;17.950;2024-02-14T09:41:22;101302.43;;;-2.53;95.82
72909;BME280;61051;62.624;17.950;2024-02-14T09:43:51;101305.08;;;-2.54;95.68
72909;BME280;61051;62.624;17.950;2024-02-14T09:46:20;101304.52;;;-2.63;95.95
72909;BME280;61051;62.624;17.950;2024-02-14T09:48:54;101304.34;;;-2.61;96.40
72909;BME280;61051;62.624;17.950;2024-02-14T09:51:23;101302.38;;;-2.55;96.59
72909;BME280;61051;62.624;17.950;2024-02-14T09:53:54;101298.04;;;-2.66;97.12
72909;BME280;61051;62.624;17.950;2024-02-14T09:56:23;101303.11;;;-2.71;98.02
72909;BME280;61051;62.624;17.950;2024-02-14T09:58:51;101303.35;;;-2.65;98.00
72909;BME280;61051;62.624;17.950;2024-02-14T10:01:22;101303.20;;;-2.70;97.54
72909;BME280;61051;62.624;17.950;2024-02-14T10:03:50;101304.72;;;-2.57;97.83
72909;BME280;61051;62.624;17.950;2024-02-14T10:06:19;101307.77;;;-2.61;98.14
72909;BME280;61051;62.624;17.950;2024-02-14T10:08:49;101311.08;;;-2.64;98.80
72909;BME280;61051;62.624;17.950;2024-02-14T10:11:18;101313.58;;;-2.64;99.07
72909;BME280;61051;62.624;17.950;2024-02-14T10:13:47;101312.28;;;-2.80;99.00
72909;BME280;61051;62.624;17.950;2024-02-14T10:16:15;101311.64;;;-2.77;99.16
72909;BME280;61051;62.624;17.950;2024-02-14T10:18:45;101312.24;;;-2.73;98.99
72909;BME280;61051;62.624;17.950;2024-02-14T10:21:14;101313.12;;;-2.69;99.19
72909;BME280;61051;62.624;17.950;2024-02-14T10:23:44;101312.03;;;-2.69;99.07
72909;BME280;61051;62.624;17.950;2024-02-14T10:26:12;101312.98;;;-2.63;98.29
72909;BME280;61051;62.624;17.950;2024-02-14T10:28:42;101309.74;;;-2.56;98.54
72909;BME280;61051;62.624;17.950;2024-02-14T10:31:11;101310.89;;;-2.61;98.33
72909;BME280;61051;62.624;17.950;2024-02-14T10:33:39;101309.16;;;-2.55;97.86
72909;BME280;61051;62.624;17.950;2024-02-14T10:36:08;101307.15;;;-2.62;98.32
72909;BME280;61051;62.624;17.950;2024-02-14T10:38:37;101308.72;;;-2.64;98.43
72909;BME280;61051;62.624;17.950;2024-02-14T10:41:07;101307.90;;;-2.63;98.61
72909;BME280;61051;62.624;17.950;2024-02-14T10:43:36;101308.78;;;-2.75;98.51
72909;BME280;61051;62.624;17.950;2024-02-14T10:46:12;101305.06;;;-2.63;97.81
72909;BME280;61051;62.624;17.950;2024-02-14T10:48:42;101307.20;;;-2.49;98.04
72909;BME280;61051;62.624;17.950;2024-02-14T10:51:12;101308.18;;;-2.52;98.31
72909;BME280;61051;62.624;17.950;2024-02-14T10:53:45;101302.55;;;-2.65;98.38
72909;BME280;61051;62.624;17.950;2024-02-14T10:56:17;101304.02;;;-2.69;98.49
72909;BME280;61051;62.624;17.950;2024-02-14T10:58:47;101305.26;;;-2.58;98.54
72909;BME280;61051;62.624;17.950;2024-02-14T11:03:35;101300.17;;;-2.58;98.12
72909;BME280;61051;62.624;17.950;2024-02-14T11:06:03;101299.55;;;-2.49;98.29
72909;BME280;61051;62.624;17.950;2024-02-14T11:08:32;101296.58;;;-2.44;97.47
72909;BME280;61051;62.624;17.950;2024-02-14T11:11:00;101296.89;;;-2.43;98.27
72909;BME280;61051;62.624;17.950;2024-02-14T11:13:29;101295.36;;;-2.50;98.48
72909;BME280;61051;62.624;17.950;2024-02-14T11:15:57;101294.93;;;-2.37;98.54
72909;BME280;61051;62.624;17.950;2024-02-14T11:18:29;101293.85;;;-2.35;98.16
72909;BME280;61051;62.624;17.950;2024-02-14T11:20:59;101293.20;;;-2.24;97.59
72909;BME280;61051;62.624;17.950;2024-02-14T11:23:30;101295.21;;;-2.18;97.28
72909;BME280;61051;62.624;17.950;2024-02-14T11:26:00;101296.36;;;-2.19;97.90
72909;BME280;61051;62.624;17.950;2024-02-14T11:28:29;101299.62;;;-2.23;97.20
72909;BME280;61051;62.624;17.950;2024-02-14T11:31:00;101294.83;;;-2.11;97.57
72909;BME280;61051;62.624;17.950;2024-02-14T11:33:29;101294.29;;;-2.04;97.54
72909;BME280;61051;62.624;17.950;2024-02-14T11:36:01;101289.03;;;-2.02;97.71
72909;BME280;61051;62.624;17.950;2024-02-14T11:38:35;101289.86;;;-1.96;97.86
72909;BME280;61051;62.624;17.950;2024-02-14T11:41:04;101287.40;;;-1.91;97.56
72909;BME280;61051;62.624;17.950;2024-02-14T11:43:32;101283.23;;;-1.84;97.27
72909;BME280;61051;62.624;17.950;2024-02-14T11:46:01;101285.84;;;-1.70;97.68
72909;BME280;61051;62.624;17.950;2024-02-14T11:48:30;101284.92;;;-1.63;96.75
72909;BME280;61051;62.624;17.950;2024-02-14T11:50:59;101285.90;;;-1.66;96.40
72909;BME280;61051;62.624;17.950;2024-02-14T11:53:28;101286.78;;;-1.55;96.91
72909;BME280;61051;62.624;17.950;2024-02-14T11:55:56;101286.61;;;-1.42;96.78
72909;BME280;61051;62.624;17.950;2024-02-14T11:58:25;101287.70;;;-1.37;96.03
72909;BME280;61051;62.624;17.950;2024-02-14T12:00:55;101289.80;;;-1.33;96.20
72909;BME280;61051;62.624;17.950;2024-02-14T12:03:23;101290.66;;;-1.18;97.04
72909;BME280;61051;62.624;17.950;2024-02-14T12:05:53;101294.66;;;-0.93;93.51
72909;BME280;61051;62.624;17.950;2024-02-14T12:08:23;101294.46;;;-0.76;92.79
72909;BME280;61051;62.624;17.950;2024-02-14T12:10:53;101294.47;;;-0.66;92.09
72909;BME280;61051;62.624;17.950;2024-02-14T12:13:22;101298.30;;;-0.80;92.06
72909;BME280;61051;62.624;17.950;2024-02-14T12:15:51;101299.76;;;-0.76;92.58
72909;BME280;61051;62.624;17.950;2024-02-14T12:18:21;101298.48;;;-0.81;93.59
72909;BME280;61051;62.624;17.950;2024-02-14T12:20:50;101294.40;;;-0.79;93.46
72909;BME280;61051;62.624;17.950;2024-02-14T12:23:20;101292.05;;;-0.73;92.87
72909;BME280;61051;62.624;17.950;2024-02-14T12:25:49;101293.62;;;-0.85;92.44
72909;BME280;61051;62.624;17.950;2024-02-14T12:28:20;101292.56;;;-0.95;93.91
72909;BME280;61051;62.624;17.950;2024-02-14T12:30:50;101291.50;;;-0.95;94.50
72909;BME280;61051;62.624;17.950;2024-02-14T12:33:21;101293.87;;;-0.78;94.22
72909;BME280;61051;62.624;17.950;2024-02-14T12:35:51;101297.20;;;-0.79;93.86
72909;BME280;61051;62.624;17.950;2024-02-14T12:38:21;101298.28;;;-0.73;93.99
72909;BME280;61051;62.624;17.950;2024-02-14T12:40:51;101300.06;;;-0.59;92.54
72909;BME280;61051;62.624;17.950;2024-02-14T12:43:21;101302.38;;;-0.55;91.25
72909;BME280;61051;62.624;17.950;2024-02-14T12:45:49;101300.80;;;-0.64;90.98
72909;BME280;61051;62.624;17.950;2024-02-14T12:48:23;101296.75;;;-0.65;92.22
72909;BME280;61051;62.624;17.950;2024-02-14T12:50:52;101299.28;;;-0.63;92.89
72909;BME280;61051;62.624;17.950;2024-02-14T12:53:22;101300.74;;;-0.71;92.67